METAR Data
IDs: Format: Raw Decoded Include TAF

Data at: 1124 UTC 07 Jul 2020

KRNC 071115Z AUTO 00000KT 5SM BR CLR 21/20 A3001 RMK A01
KRNC 071055Z AUTO 00000KT 1 3/4SM BR CLR 20/20 A3001 RMK A01 VIS 3/4V4
KRNC 071035Z AUTO 00000KT 1/4SM FG VV002 21/21 A3000 RMK A01
KRNC 071015Z AUTO 00000KT 1/2SM FG VV005 21/21 A3000 RMK A01
KRNC 070955Z AUTO 00000KT 4SM BR CLR 21/21 A3000 RMK A01
KRNC 070935Z AUTO 00000KT 2SM BR CLR 21/21 A3001 RMK A01
KRNC 070915Z AUTO 00000KT 9SM SCT055 BKN070 21/21 A3000 RMK A01
KRNC 070855Z AUTO 00000KT 1 1/2SM BR BKN050 OVC060 21/21 A3000 RMK A01 VIS 1/2V4
KRNC 070835Z AUTO 00000KT 1 1/4SM BR OVC050 21/21 A3000 RMK A01
KRNC 070815Z AUTO 00000KT 3SM BR BKN050 21/21 A3000 RMK A01
KRNC 070755Z AUTO 00000KT 5SM BR CLR 21/21 A3000 RMK A01
KRNC 070735Z AUTO 00000KT 1 1/2SM BR CLR 22/21 A3000 RMK A01
KRNC 070715Z AUTO 00000KT 3SM BR CLR 22/21 A3000 RMK A01
KRNC 070655Z AUTO 00000KT 3SM BR CLR 22/21 A3000 RMK A01
KRNC 070635Z AUTO 00000KT 6SM BR FEW100 22/22 A3000 RMK A01
KRNC 070615Z AUTO 00000KT 8SM FEW038 SCT095 BKN120 22/21 A3000 RMK A01
KRNC 070555Z AUTO 09003KT 9SM FEW041 SCT055 BKN120 22/21 A3001 RMK A01
KRNC 070535Z AUTO 00000KT 10SM FEW043 SCT048 BKN070 23/22 A3002 RMK A01
KRNC 070515Z AUTO 00000KT 10SM SCT044 BKN049 OVC070 23/22 A3002 RMK A01
KRNC 070455Z AUTO 00000KT 10SM FEW003 BKN065 OVC075 23/21 A3003 RMK A01 P0030
KRNC 070435Z AUTO 27003KT 1 1/4SM HZ BKN003 BKN023 OVC031 24/21 A3003 RMK A01
KRNC 070415Z AUTO 00000KT 10SM FEW031 BKN045 OVC065 25/22 A3003 RMK A01
KRNC 070355Z AUTO 00000KT 10SM BKN050 OVC065 24/22 A3002 RMK A01
KRNC 070335Z AUTO 00000KT 10SM OVC055 24/22 A3001 RMK A01
KRNC 070315Z AUTO 00000KT 10SM OVC055 24/22 A3001 RMK A01
KRNC 070255Z AUTO 00000KT 10SM BKN055 24/22 A3001 RMK A01
KRNC 070235Z AUTO 00000KT 10SM FEW060 SCT080 24/22 A3000 RMK A01
KRNC 070215Z AUTO 00000KT 10SM BKN075 25/22 A3000 RMK A01
KRNC 070155Z AUTO 00000KT 10SM BKN075 25/22 A3000 RMK A01
KRNC 070135Z AUTO 36005KT 10SM CLR 25/21 A2999 RMK A01
KRNC 070115Z AUTO 00000KT 10SM CLR 25/21 A2999 RMK A01
KRNC 070055Z AUTO 00000KT 10SM CLR 26/21 A2998 RMK A01
KRNC 070035Z AUTO 00000KT 10SM CLR 27/21 A2998 RMK A01
KRNC 070015Z AUTO 00000KT 10SM CLR 29/21 A2998 RMK A01
KRNC 062355Z AUTO 00000KT 10SM CLR 30/20 A2997 RMK A01
KRNC 062335Z AUTO 00000KT 10SM CLR 30/20 A2997 RMK A01
KRNC 062315Z AUTO 00000KT 10SM CLR 31/19 A2997 RMK A01
KRNC 062255Z AUTO 00000KT 10SM CLR 31/19 A2997 RMK A01
KRNC 062235Z AUTO VRB03KT 10SM CLR 31/20 A2998 RMK A01
KRNC 062215Z AUTO VRB05KT 10SM CLR 31/20 A2997 RMK A01
KRNC 062155Z AUTO VRB04KT 10SM CLR 30/20 A2998 RMK A01
KRNC 062135Z AUTO 14006KT 10SM CLR 30/20 A2998 RMK A01
KRNC 062115Z AUTO VRB04KT 10SM SCT049 31/21 A2998 RMK A01
KRNC 062055Z AUTO 13003KT 10SM BKN050 BKN060 30/21 A2998 RMK A01
KRNC 062035Z AUTO 06004KT 10SM FEW050 SCT060 31/20 A2999 RMK A01
KRNC 062015Z AUTO 09003KT 10SM FEW048 FEW060 31/19 A2999 RMK A01
KRNC 061955Z AUTO 00000KT 10SM FEW042 31/21 A3000 RMK A01
KRNC 061935Z AUTO 00000KT 10SM SCT042 SCT048 31/21 A3001 RMK A01
KRNC 061915Z AUTO 00000KT 10SM CLR 31/21 A3001 RMK A01
KRNC 061855Z AUTO 00000KT 10SM CLR 30/20 A3001 RMK A01
KRNC 061835Z AUTO VRB05KT 10SM CLR 30/21 A3002 RMK A01
KRNC 061815Z AUTO VRB05KT 10SM FEW046 29/21 A3003 RMK A01
KRNC 061755Z AUTO 19004KT 10SM FEW044 SCT049 SCT055 29/21 A3003 RMK A01
KRNC 061735Z AUTO 13005KT 10SM FEW043 BKN050 BKN060 30/20 A3003 RMK A01
KRNC 061715Z AUTO 11004KT 10SM FEW046 SCT055 BKN065 30/21 A3004 RMK A01
KRNC 061655Z AUTO 22003KT 10SM CLR 30/20 A3004 RMK A01
KRNC 061635Z AUTO VRB04KT 10SM FEW090 30/21 A3005 RMK A01
KRNC 061615Z AUTO VRB05KT 10SM SCT090 30/21 A3006 RMK A01
KRNC 061555Z AUTO VRB03KT 10SM FEW075 BKN090 29/22 A3006 RMK A01
KRNC 061535Z AUTO 00000KT 10SM FEW060 BKN075 BKN095 28/21 A3006 RMK A01
KRNC 061515Z AUTO VRB03KT 10SM OVC080 28/21 A3006 RMK A01
KRNC 061455Z AUTO 00000KT 10SM BKN080 BKN090 27/21 A3006 RMK A01
KRNC 061435Z AUTO 00000KT 10SM BKN080 27/21 A3005 RMK A01
KRNC 061415Z AUTO 00000KT 10SM OVC080 27/21 A3005 RMK A01
KRNC 061355Z AUTO 00000KT 10SM SCT080 26/21 A3005 RMK A01
KRNC 061335Z AUTO 00000KT 10SM CLR 27/21 A3005 RMK A01
KRNC 061315Z AUTO 00000KT 10SM CLR 25/21 A3005 RMK A01
KRNC 061255Z AUTO 00000KT 10SM CLR 25/21 A3005 RMK A01
KRNC 061235Z AUTO 00000KT 10SM CLR 24/21 A3004 RMK A01
KRNC 061215Z AUTO 00000KT 10SM CLR 23/22 A3003 RMK A01
KRNC 061155Z AUTO 00000KT 10SM CLR 22/21 A3002 RMK A01
KRNC 061135Z AUTO 00000KT 10SM CLR 21/21 A3001 RMK A01
KRNC 061115Z AUTO 00000KT 9SM CLR 20/20 A3000 RMK A01
KRNC 061055Z AUTO 00000KT 9SM CLR 20/20 A3000 RMK A01
KRNC 061035Z AUTO 00000KT 8SM CLR 20/20 A3000 RMK A01
KRNC 061015Z AUTO 00000KT 8SM CLR 20/20 A3000 RMK A01
KRNC 060955Z AUTO 00000KT 1 1/2SM BR CLR 21/21 A2999 RMK A01 VIS 1/4V5
KRNC 060935Z AUTO 00000KT 1/2SM FG VV005 20/20 A2998 RMK A01
KRNC 060915Z AUTO 00000KT 1SM BR CLR 21/20 A2997 RMK A01
KRNC 060855Z AUTO 00000KT 1/4SM FG VV002 21/21 A2997 RMK A01
KRNC 060835Z AUTO 00000KT 2SM BR FEW001 21/21 A2996 RMK A01 VIS 3/4V3
KRNC 060815Z AUTO 00000KT 1 1/2SM BR BKN002 21/21 A2996 RMK A01
KRNC 060755Z AUTO 00000KT 1/4SM FG OVC002 22/22 A2996 RMK A01
KRNC 060735Z AUTO 09003KT 1/4SM FG OVC002 22/21 A2996 RMK A01
KRNC 060715Z AUTO 00000KT 1/4SM FG OVC003 21/21 A2996 RMK A01
KRNC 060655Z AUTO 00000KT 1 1/2SM BR SCT004 21/21 A2996 RMK A01 VIS 1/4V5
KRNC 060635Z AUTO 00000KT 9SM SCT055 22/21 A2997 RMK A01
KRNC 060615Z AUTO 00000KT 10SM BKN055 22/21 A2998 RMK A01
KRNC 060555Z AUTO 00000KT 10SM CLR 22/21 A2998 RMK A01
KRNC 060535Z AUTO 05003KT 10SM CLR 23/22 A2998 RMK A01
KRNC 060515Z AUTO 00000KT 10SM CLR 23/22 A2998 RMK A01
KRNC 060455Z AUTO 04003KT 10SM CLR 23/22 A2998 RMK A01
KRNC 060435Z AUTO 00000KT 10SM CLR 23/22 A2998 RMK A01
KRNC 060415Z AUTO 00000KT 10SM SCT090 SCT120 23/22 A2998 RMK A01
KRNC 060355Z AUTO 00000KT 10SM BKN090 BKN120 23/22 A2998 RMK A01
KRNC 060335Z AUTO 00000KT 10SM FEW055 FEW120 23/22 A2999 RMK A01
KRNC 060315Z AUTO 05004KT 10SM CLR 23/22 A2999 RMK A01
KRNC 060255Z AUTO 00000KT 10SM FEW110 24/22 A2999 RMK A01
KRNC 060235Z AUTO 03004KT 10SM FEW110 24/22 A2999 RMK A01
KRNC 060215Z AUTO 02005KT 10SM SCT100 24/22 A2998 RMK A01
KRNC 060155Z AUTO 00000KT 10SM FEW055 BKN100 24/22 A2997 RMK A01
KRNC 060135Z AUTO 05005KT 10SM BKN055 25/22 A2998 RMK A01
KRNC 060115Z AUTO 05003KT 10SM CLR 25/22 A2997 RMK A01
KRNC 060055Z AUTO 00000KT 10SM CLR 25/22 A2997 RMK A01
KRNC 060035Z AUTO 00000KT 10SM CLR 25/22 A2997 RMK A01
KRNC 060015Z AUTO 02003KT 10SM FEW120 26/22 A2997 RMK A01
KRNC 052355Z AUTO 04003KT 10SM CLR 26/22 A2995 RMK A01
KRNC 052335Z AUTO 00000KT 10SM CLR 27/21 A2994 RMK A01